Главная страница
METAR-TAF:

METAR-TAF

Аэропорты :

Хартум, Судан

широта: 15-36N, долгота: 032-33E, высота над уровнем моря: 382 м

Текущие метеонаблюдения

Эта сводка был подготовлена 42 минут назад, в 20:00 UTC
Ветер 9 Узел от северный
Температура 26°C
Влажность 26%
Давление 1013 hPa
Видимость 10 км и более
Нет облачности ниже 1500 м, и нет кучево-дождевой облачности

METAR: HSSS 232000Z 35009KT CAVOK 26/05 Q1013 NOSIG

Время: 22:42 (20:42 UTC)

Прогноз

Эта сводка был подготовлена 27 часа и 42 минут назад, в 17:00 UTC
Прогноз действительный с 22-го 18 UTC до 23-го 24 UTC
Ветер 12 Узел от северный с порывами до 22 Узел
Видимость 10 км и более
Нет облачности ниже 1500 м, и нет кучево-дождевой облачности
временами
С 23-го 04 UTC до 23-го 09 UTC
Видимость: 6000 м

TAF: HSSS 221700Z 2218/2324 36012G22KT CAVOK TEMPO 2304/2309 6000

Метеонаблюдения и прогнозы для более 4000 аэропортов (сводки METAR и TAF).

Имеющиеся станции представлены на карте желтыми и красными точками.

Чтобы увидеть название станции, наведите на нее мышь.

Затем щелкните, чтобы увидеть метеонаблюдения и метеопрогнозы.

Управление картой: чтобы увеличить масштаб, щелкните зеленые кнопки с черным крестиком; чтобы уменьшить масштаб, щелкните зеленую кнопку с тире; для просмотра соседних карт щелкайте зеленые стрелки.


METAR-TAF: